TJBQ/BQN METAR and TAF weather

Enter ICAO airport designator
Station Type Date Time Source
TJBQ METAR 2021/10/22 19:50 UTC NOAA

TJBQ 221950Z 10014G21KT 10SM CLR 30/23 A2998


Station Type Date Time Source
TJBQ Decoded METAR 2021/10/22 19:50 UTC NOAA

Aquadilla, Rafael Hernandez Airport, PR, United States (TJBQ) 18-30N 067-08W 69M
Oct 22, 2021 - 03:50 PM EDT / 2021.10.22 1950 UTC
Wind: from the E (100 degrees) at 16 MPH (14 KT) gusting to 24 MPH (21 KT):0
Visibility: 10 mile(s):0
Sky conditions: clear
Temperature: 86 F (30 C)
Heat index: 93.4 F (34.1 C):1
Dew Point: 73 F (23 C)
Relative Humidity: 66%
Pressure (altimeter): 29.98 in. Hg (1015 hPa)
ob: TJBQ 221950Z 10014G21KT 10SM CLR 30/23 A2998
cycle: 20

Station Type Date Time Source
TJBQ TAF 2021/10/22 18:39 UTC NOAA

TAF TJBQ 221732Z 2218/2318 09017G22KT P6SM VCSH SCT022 SCT040
FM222300 11009KT P6SM FEW025 SCT070
FM231400 08014KT P6SM FEW040
FM231700 08015G23KT P6SM VCSH SCT025 SCT040
AMD NOT SKED 2302/2311

Example: see airport list